sensor_id;sensor_type;location;lat;lon;timestamp;temperature;humidity
19363;DHT22;9817;50.80926400;5.16316200;2023-09-30T00:01:09;13.60;99.90
19363;DHT22;9817;50.80926400;5.16316200;2023-09-30T00:03:36;13.50;99.90
19363;DHT22;9817;50.80926400;5.16316200;2023-09-30T00:06:01;13.60;99.90
19363;DHT22;9817;50.80926400;5.16316200;2023-09-30T00:08:27;13.70;99.90
19363;DHT22;9817;50.80926400;5.16316200;2023-09-30T00:10:53;13.70;99.90
19363;DHT22;9817;50.80926400;5.16316200;2023-09-30T00:13:20;13.80;99.90
19363;DHT22;9817;50.80926400;5.16316200;2023-09-30T00:15:45;13.70;99.90
19363;DHT22;9817;50.80926400;5.16316200;2023-09-30T00:18:11;13.70;99.90
19363;DHT22;9817;50.80926400;5.16316200;2023-09-30T00:20:39;13.80;99.90
19363;DHT22;9817;50.80926400;5.16316200;2023-09-30T00:23:04;13.80;99.90
19363;DHT22;9817;50.80926400;5.16316200;2023-09-30T00:25:32;13.80;99.90
19363;DHT22;9817;50.80926400;5.16316200;2023-09-30T00:27:58;13.80;99.90
19363;DHT22;9817;50.80926400;5.16316200;2023-09-30T00:30:24;13.80;99.90
19363;DHT22;9817;50.80926400;5.16316200;2023-09-30T00:32:49;13.90;99.90
19363;DHT22;9817;50.80926400;5.16316200;2023-09-30T00:35:15;13.90;99.90
19363;DHT22;9817;50.80926400;5.16316200;2023-09-30T00:37:42;13.80;99.90
19363;DHT22;9817;50.80926400;5.16316200;2023-09-30T00:40:08;13.80;99.90
19363;DHT22;9817;50.80926400;5.16316200;2023-09-30T00:42:40;13.80;99.90
19363;DHT22;9817;50.80926400;5.16316200;2023-09-30T00:45:07;13.80;99.90
19363;DHT22;9817;50.80926400;5.16316200;2023-09-30T00:47:35;13.80;99.90
19363;DHT22;9817;50.80926400;5.16316200;2023-09-30T00:50:02;13.70;99.90
19363;DHT22;9817;50.80926400;5.16316200;2023-09-30T00:52:30;13.60;99.90
19363;DHT22;9817;50.80926400;5.16316200;2023-09-30T00:54:57;13.60;99.90
19363;DHT22;9817;50.80926400;5.16316200;2023-09-30T00:57:23;13.70;99.90
19363;DHT22;9817;50.80926400;5.16316200;2023-09-30T00:59:50;13.80;99.90
19363;DHT22;9817;50.80926400;5.16316200;2023-09-30T01:02:18;13.80;99.90
19363;DHT22;9817;50.80926400;5.16316200;2023-09-30T01:04:44;13.80;99.90
19363;DHT22;9817;50.80926400;5.16316200;2023-09-30T01:07:09;13.70;99.90
19363;DHT22;9817;50.80926400;5.16316200;2023-09-30T01:09:36;13.80;99.90
19363;DHT22;9817;50.80926400;5.16316200;2023-09-30T01:12:02;13.80;99.90
19363;DHT22;9817;50.80926400;5.16316200;2023-09-30T01:14:33;13.80;99.90
19363;DHT22;9817;50.80926400;5.16316200;2023-09-30T01:17:06;13.70;99.90
19363;DHT22;9817;50.80926400;5.16316200;2023-09-30T01:19:35;13.90;99.90
19363;DHT22;9817;50.80926400;5.16316200;2023-09-30T01:22:01;13.90;99.90
19363;DHT22;9817;50.80926400;5.16316200;2023-09-30T01:24:31;13.80;99.90
19363;DHT22;9817;50.80926400;5.16316200;2023-09-30T01:27:03;13.80;99.90
19363;DHT22;9817;50.80926400;5.16316200;2023-09-30T01:29:29;13.90;99.90
19363;DHT22;9817;50.80926400;5.16316200;2023-09-30T01:31:54;14.00;99.90
19363;DHT22;9817;50.80926400;5.16316200;2023-09-30T01:34:21;14.00;99.90
19363;DHT22;9817;50.80926400;5.16316200;2023-09-30T01:36:46;13.90;99.90
19363;DHT22;9817;50.80926400;5.16316200;2023-09-30T01:39:13;13.90;99.90
19363;DHT22;9817;50.80926400;5.16316200;2023-09-30T01:41:39;13.80;99.90
19363;DHT22;9817;50.80926400;5.16316200;2023-09-30T01:44:06;13.80;99.90
19363;DHT22;9817;50.80926400;5.16316200;2023-09-30T01:46:31;13.90;99.90
19363;DHT22;9817;50.80926400;5.16316200;2023-09-30T01:48:57;13.80;99.90
19363;DHT22;9817;50.80926400;5.16316200;2023-09-30T01:51:23;13.90;99.90
19363;DHT22;9817;50.80926400;5.16316200;2023-09-30T01:53:49;13.90;99.90
19363;DHT22;9817;50.80926400;5.16316200;2023-09-30T01:56:15;13.90;99.90
19363;DHT22;9817;50.80926400;5.16316200;2023-09-30T01:58:40;13.80;99.90
19363;DHT22;9817;50.80926400;5.16316200;2023-09-30T02:01:06;13.80;99.90
19363;DHT22;9817;50.80926400;5.16316200;2023-09-30T02:03:32;13.80;99.90
19363;DHT22;9817;50.80926400;5.16316200;2023-09-30T02:05:58;13.70;99.90
19363;DHT22;9817;50.80926400;5.16316200;2023-09-30T02:08:23;13.80;99.90
19363;DHT22;9817;50.80926400;5.16316200;2023-09-30T02:10:49;13.70;99.90
19363;DHT22;9817;50.80926400;5.16316200;2023-09-30T02:13:17;13.60;99.90
19363;DHT22;9817;50.80926400;5.16316200;2023-09-30T02:15:43;13.50;99.90
19363;DHT22;9817;50.80926400;5.16316200;2023-09-30T02:18:09;13.60;99.90
19363;DHT22;9817;50.80926400;5.16316200;2023-09-30T02:20:35;13.60;99.90
19363;DHT22;9817;50.80926400;5.16316200;2023-09-30T02:23:11;13.50;99.90
19363;DHT22;9817;50.80926400;5.16316200;2023-09-30T02:25:37;13.70;99.90
19363;DHT22;9817;50.80926400;5.16316200;2023-09-30T02:28:03;13.70;99.90
19363;DHT22;9817;50.80926400;5.16316200;2023-09-30T02:30:30;13.70;99.90
19363;DHT22;9817;50.80926400;5.16316200;2023-09-30T02:32:56;13.80;99.90
19363;DHT22;9817;50.80926400;5.16316200;2023-09-30T02:35:22;13.80;99.90
19363;DHT22;9817;50.80926400;5.16316200;2023-09-30T02:37:48;13.80;99.90
19363;DHT22;9817;50.80926400;5.16316200;2023-09-30T02:40:15;13.70;99.90
19363;DHT22;9817;50.80926400;5.16316200;2023-09-30T02:42:42;13.80;99.90
19363;DHT22;9817;50.80926400;5.16316200;2023-09-30T02:45:10;13.70;99.90
19363;DHT22;9817;50.80926400;5.16316200;2023-09-30T02:47:36;13.60;99.90
19363;DHT22;9817;50.80926400;5.16316200;2023-09-30T02:50:04;13.50;99.90
19363;DHT22;9817;50.80926400;5.16316200;2023-09-30T02:52:30;13.60;99.90
19363;DHT22;9817;50.80926400;5.16316200;2023-09-30T02:54:57;13.60;99.90
19363;DHT22;9817;50.80926400;5.16316200;2023-09-30T02:57:24;13.50;99.90
19363;DHT22;9817;50.80926400;5.16316200;2023-09-30T02:59:50;13.50;99.90
19363;DHT22;9817;50.80926400;5.16316200;2023-09-30T03:02:17;13.40;99.90
19363;DHT22;9817;50.80926400;5.16316200;2023-09-30T03:04:43;13.50;99.90
19363;DHT22;9817;50.80926400;5.16316200;2023-09-30T03:07:09;13.50;99.90
19363;DHT22;9817;50.80926400;5.16316200;2023-09-30T03:09:35;13.50;99.90
19363;DHT22;9817;50.80926400;5.16316200;2023-09-30T03:12:04;13.60;99.90
19363;DHT22;9817;50.80926400;5.16316200;2023-09-30T03:14:30;13.60;99.90
19363;DHT22;9817;50.80926400;5.16316200;2023-09-30T03:16:57;13.50;99.90
19363;DHT22;9817;50.80926400;5.16316200;2023-09-30T03:19:23;13.50;99.90
19363;DHT22;9817;50.80926400;5.16316200;2023-09-30T03:21:49;13.40;99.90
19363;DHT22;9817;50.80926400;5.16316200;2023-09-30T03:24:15;13.40;99.90
19363;DHT22;9817;50.80926400;5.16316200;2023-09-30T03:26:41;13.40;99.90
19363;DHT22;9817;50.80926400;5.16316200;2023-09-30T03:29:07;13.40;99.90
19363;DHT22;9817;50.80926400;5.16316200;2023-09-30T03:31:34;13.30;99.90
19363;DHT22;9817;50.80926400;5.16316200;2023-09-30T03:34:00;13.30;99.90
19363;DHT22;9817;50.80926400;5.16316200;2023-09-30T03:36:26;13.30;99.90
19363;DHT22;9817;50.80926400;5.16316200;2023-09-30T03:38:55;13.30;99.90
19363;DHT22;9817;50.80926400;5.16316200;2023-09-30T03:41:24;13.20;99.90
19363;DHT22;9817;50.80926400;5.16316200;2023-09-30T03:43:50;13.20;99.90
19363;DHT22;9817;50.80926400;5.16316200;2023-09-30T03:46:16;13.30;99.90
19363;DHT22;9817;50.80926400;5.16316200;2023-09-30T03:48:42;13.30;99.90
19363;DHT22;9817;50.80926400;5.16316200;2023-09-30T03:51:13;13.20;99.90
19363;DHT22;9817;50.80926400;5.16316200;2023-09-30T03:53:43;13.30;99.90
19363;DHT22;9817;50.80926400;5.16316200;2023-09-30T03:56:10;13.30;99.90
19363;DHT22;9817;50.80926400;5.16316200;2023-09-30T03:58:41;13.30;99.90
19363;DHT22;9817;50.80926400;5.16316200;2023-09-30T04:01:07;13.20;99.90
19363;DHT22;9817;50.80926400;5.16316200;2023-09-30T04:03:33;13.20;99.90
19363;DHT22;9817;50.80926400;5.16316200;2023-09-30T04:06:01;13.20;99.90
19363;DHT22;9817;50.80926400;5.16316200;2023-09-30T04:08:28;13.20;99.90
19363;DHT22;9817;50.80926400;5.16316200;2023-09-30T04:10:54;13.20;99.90
19363;DHT22;9817;50.80926400;5.16316200;2023-09-30T04:13:20;13.20;99.90
19363;DHT22;9817;50.80926400;5.16316200;2023-09-30T04:15:47;13.20;99.90
19363;DHT22;9817;50.80926400;5.16316200;2023-09-30T04:18:12;13.20;99.90
19363;DHT22;9817;50.80926400;5.16316200;2023-09-30T04:20:38;13.10;99.90
19363;DHT22;9817;50.80926400;5.16316200;2023-09-30T04:23:06;13.10;99.90
19363;DHT22;9817;50.80926400;5.16316200;2023-09-30T04:25:32;13.10;99.90
19363;DHT22;9817;50.80926400;5.16316200;2023-09-30T04:27:58;13.10;99.90
19363;DHT22;9817;50.80926400;5.16316200;2023-09-30T04:30:24;13.20;99.90
19363;DHT22;9817;50.80926400;5.16316200;2023-09-30T04:32:49;13.10;99.90
19363;DHT22;9817;50.80926400;5.16316200;2023-09-30T04:35:15;13.00;99.90
19363;DHT22;9817;50.80926400;5.16316200;2023-09-30T04:37:41;13.00;99.90
19363;DHT22;9817;50.80926400;5.16316200;2023-09-30T04:40:09;13.00;99.90
19363;DHT22;9817;50.80926400;5.16316200;2023-09-30T04:42:45;13.00;99.90
19363;DHT22;9817;50.80926400;5.16316200;2023-09-30T04:45:12;13.00;99.90
19363;DHT22;9817;50.80926400;5.16316200;2023-09-30T04:47:39;13.00;99.90
19363;DHT22;9817;50.80926400;5.16316200;2023-09-30T04:50:08;13.00;99.90
19363;DHT22;9817;50.80926400;5.16316200;2023-09-30T04:52:34;13.00;99.90
19363;DHT22;9817;50.80926400;5.16316200;2023-09-30T04:55:00;12.90;99.90
19363;DHT22;9817;50.80926400;5.16316200;2023-09-30T04:57:26;13.00;99.90
19363;DHT22;9817;50.80926400;5.16316200;2023-09-30T04:59:52;13.00;99.90
19363;DHT22;9817;50.80926400;5.16316200;2023-09-30T05:02:18;13.00;99.90
19363;DHT22;9817;50.80926400;5.16316200;2023-09-30T05:04:43;12.90;99.90
19363;DHT22;9817;50.80926400;5.16316200;2023-09-30T05:07:09;12.80;99.90
19363;DHT22;9817;50.80926400;5.16316200;2023-09-30T05:09:35;12.80;99.90
19363;DHT22;9817;50.80926400;5.16316200;2023-09-30T05:12:01;12.80;99.90
19363;DHT22;9817;50.80926400;5.16316200;2023-09-30T05:14:29;12.80;99.90
19363;DHT22;9817;50.80926400;5.16316200;2023-09-30T05:16:55;12.80;99.90
19363;DHT22;9817;50.80926400;5.16316200;2023-09-30T05:19:22;12.80;99.90
19363;DHT22;9817;50.80926400;5.16316200;2023-09-30T05:21:48;12.80;99.90
19363;DHT22;9817;50.80926400;5.16316200;2023-09-30T05:24:14;12.80;99.90
19363;DHT22;9817;50.80926400;5.16316200;2023-09-30T05:26:40;12.80;99.90
19363;DHT22;9817;50.80926400;5.16316200;2023-09-30T05:29:06;12.70;99.90
19363;DHT22;9817;50.80926400;5.16316200;2023-09-30T05:31:33;12.90;99.90
19363;DHT22;9817;50.80926400;5.16316200;2023-09-30T05:33:58;12.90;99.90
19363;DHT22;9817;50.80926400;5.16316200;2023-09-30T05:36:24;12.90;99.90
19363;DHT22;9817;50.80926400;5.16316200;2023-09-30T05:38:50;12.70;99.90
19363;DHT22;9817;50.80926400;5.16316200;2023-09-30T05:41:16;12.70;99.90
19363;DHT22;9817;50.80926400;5.16316200;2023-09-30T05:43:41;12.70;99.90
19363;DHT22;9817;50.80926400;5.16316200;2023-09-30T05:46:09;12.70;99.90
19363;DHT22;9817;50.80926400;5.16316200;2023-09-30T05:48:34;12.70;99.90
19363;DHT22;9817;50.80926400;5.16316200;2023-09-30T05:51:00;12.70;99.90
19363;DHT22;9817;50.80926400;5.16316200;2023-09-30T05:53:27;12.70;99.90
19363;DHT22;9817;50.80926400;5.16316200;2023-09-30T05:55:54;12.70;99.90
19363;DHT22;9817;50.80926400;5.16316200;2023-09-30T05:58:20;12.70;99.90
19363;DHT22;9817;50.80926400;5.16316200;2023-09-30T06:00:46;12.70;99.90
19363;DHT22;9817;50.80926400;5.16316200;2023-09-30T06:03:11;12.70;99.90
19363;DHT22;9817;50.80926400;5.16316200;2023-09-30T06:05:41;12.70;99.90
19363;DHT22;9817;50.80926400;5.16316200;2023-09-30T06:08:09;12.70;99.90
19363;DHT22;9817;50.80926400;5.16316200;2023-09-30T06:10:40;12.80;99.90
19363;DHT22;9817;50.80926400;5.16316200;2023-09-30T06:13:09;12.90;99.90
19363;DHT22;9817;50.80926400;5.16316200;2023-09-30T06:15:37;13.00;99.90
19363;DHT22;9817;50.80926400;5.16316200;2023-09-30T06:18:07;13.00;99.90
19363;DHT22;9817;50.80926400;5.16316200;2023-09-30T06:20:33;13.20;99.90
19363;DHT22;9817;50.80926400;5.16316200;2023-09-30T06:23:02;13.20;99.90
19363;DHT22;9817;50.80926400;5.16316200;2023-09-30T06:25:28;13.10;99.90
19363;DHT22;9817;50.80926400;5.16316200;2023-09-30T06:27:55;13.10;99.90
19363;DHT22;9817;50.80926400;5.16316200;2023-09-30T06:30:21;13.10;99.90
19363;DHT22;9817;50.80926400;5.16316200;2023-09-30T06:32:50;13.10;99.90
19363;DHT22;9817;50.80926400;5.16316200;2023-09-30T06:35:15;13.10;99.90
19363;DHT22;9817;50.80926400;5.16316200;2023-09-30T06:37:41;13.00;99.90
19363;DHT22;9817;50.80926400;5.16316200;2023-09-30T06:40:08;13.10;99.90
19363;DHT22;9817;50.80926400;5.16316200;2023-09-30T06:42:35;13.20;99.90
19363;DHT22;9817;50.80926400;5.16316200;2023-09-30T06:45:01;13.40;99.90
19363;DHT22;9817;50.80926400;5.16316200;2023-09-30T06:47:34;13.40;99.90
19363;DHT22;9817;50.80926400;5.16316200;2023-09-30T06:50:04;13.40;99.90
19363;DHT22;9817;50.80926400;5.16316200;2023-09-30T06:52:38;13.50;99.90
19363;DHT22;9817;50.80926400;5.16316200;2023-09-30T06:55:04;13.60;99.90
19363;DHT22;9817;50.80926400;5.16316200;2023-09-30T06:57:32;13.60;99.90
19363;DHT22;9817;50.80926400;5.16316200;2023-09-30T06:59:57;13.80;99.90
19363;DHT22;9817;50.80926400;5.16316200;2023-09-30T07:02:23;13.90;99.90
19363;DHT22;9817;50.80926400;5.16316200;2023-09-30T07:04:49;14.00;99.90
19363;DHT22;9817;50.80926400;5.16316200;2023-09-30T07:07:15;14.10;99.90
19363;DHT22;9817;50.80926400;5.16316200;2023-09-30T07:09:42;14.10;99.90
19363;DHT22;9817;50.80926400;5.16316200;2023-09-30T07:12:08;14.20;99.90
19363;DHT22;9817;50.80926400;5.16316200;2023-09-30T07:14:33;14.20;99.90
19363;DHT22;9817;50.80926400;5.16316200;2023-09-30T07:16:59;14.30;99.90
19363;DHT22;9817;50.80926400;5.16316200;2023-09-30T07:19:24;14.40;99.90
19363;DHT22;9817;50.80926400;5.16316200;2023-09-30T07:21:51;14.60;99.90
19363;DHT22;9817;50.80926400;5.16316200;2023-09-30T07:24:16;14.70;99.90
19363;DHT22;9817;50.80926400;5.16316200;2023-09-30T07:26:42;14.90;99.90
19363;DHT22;9817;50.80926400;5.16316200;2023-09-30T07:29:09;15.10;99.90
19363;DHT22;9817;50.80926400;5.16316200;2023-09-30T07:31:35;15.00;99.90
19363;DHT22;9817;50.80926400;5.16316200;2023-09-30T07:34:01;15.10;99.90
19363;DHT22;9817;50.80926400;5.16316200;2023-09-30T07:36:27;15.30;99.90
19363;DHT22;9817;50.80926400;5.16316200;2023-09-30T07:38:53;15.40;99.90
19363;DHT22;9817;50.80926400;5.16316200;2023-09-30T07:41:19;15.30;99.90
19363;DHT22;9817;50.80926400;5.16316200;2023-09-30T07:43:45;15.20;99.90
19363;DHT22;9817;50.80926400;5.16316200;2023-09-30T07:46:11;15.50;99.90
19363;DHT22;9817;50.80926400;5.16316200;2023-09-30T07:48:36;15.70;99.90
19363;DHT22;9817;50.80926400;5.16316200;2023-09-30T07:51:02;15.90;99.90
19363;DHT22;9817;50.80926400;5.16316200;2023-09-30T07:53:28;16.00;99.90
19363;DHT22;9817;50.80926400;5.16316200;2023-09-30T07:55:54;16.10;99.90
19363;DHT22;9817;50.80926400;5.16316200;2023-09-30T07:58:20;16.00;99.90
19363;DHT22;9817;50.80926400;5.16316200;2023-09-30T08:00:46;15.90;99.90
19363;DHT22;9817;50.80926400;5.16316200;2023-09-30T08:03:11;16.00;99.90
19363;DHT22;9817;50.80926400;5.16316200;2023-09-30T08:05:37;16.10;99.90
19363;DHT22;9817;50.80926400;5.16316200;2023-09-30T08:08:04;16.20;99.90
19363;DHT22;9817;50.80926400;5.16316200;2023-09-30T08:10:30;16.50;99.90
19363;DHT22;9817;50.80926400;5.16316200;2023-09-30T08:12:57;16.40;99.90
19363;DHT22;9817;50.80926400;5.16316200;2023-09-30T08:15:24;16.60;99.90
19363;DHT22;9817;50.80926400;5.16316200;2023-09-30T08:17:50;16.60;99.90
19363;DHT22;9817;50.80926400;5.16316200;2023-09-30T08:20:16;16.60;99.90
19363;DHT22;9817;50.80926400;5.16316200;2023-09-30T08:22:41;16.70;99.90
19363;DHT22;9817;50.80926400;5.16316200;2023-09-30T08:25:07;16.80;99.90
19363;DHT22;9817;50.80926400;5.16316200;2023-09-30T08:27:33;16.90;99.90
19363;DHT22;9817;50.80926400;5.16316200;2023-09-30T08:30:00;17.10;99.90
19363;DHT22;9817;50.80926400;5.16316200;2023-09-30T08:32:32;17.30;99.90
19363;DHT22;9817;50.80926400;5.16316200;2023-09-30T08:34:58;17.40;99.90
19363;DHT22;9817;50.80926400;5.16316200;2023-09-30T08:37:24;17.50;99.90
19363;DHT22;9817;50.80926400;5.16316200;2023-09-30T08:39:49;17.50;99.90
19363;DHT22;9817;50.80926400;5.16316200;2023-09-30T08:42:16;17.30;99.90
19363;DHT22;9817;50.80926400;5.16316200;2023-09-30T08:44:44;17.30;99.90
19363;DHT22;9817;50.80926400;5.16316200;2023-09-30T08:47:10;17.40;99.90
19363;DHT22;9817;50.80926400;5.16316200;2023-09-30T08:49:38;17.60;99.90
19363;DHT22;9817;50.80926400;5.16316200;2023-09-30T08:52:09;17.70;99.90
19363;DHT22;9817;50.80926400;5.16316200;2023-09-30T08:54:36;17.80;99.90
19363;DHT22;9817;50.80926400;5.16316200;2023-09-30T08:57:03;18.00;99.90
19363;DHT22;9817;50.80926400;5.16316200;2023-09-30T08:59:31;18.10;99.90
19363;DHT22;9817;50.80926400;5.16316200;2023-09-30T09:01:57;18.40;99.90
19363;DHT22;9817;50.80926400;5.16316200;2023-09-30T09:04:24;18.50;99.90
19363;DHT22;9817;50.80926400;5.16316200;2023-09-30T09:06:49;18.60;99.90
19363;DHT22;9817;50.80926400;5.16316200;2023-09-30T09:09:18;18.60;99.90
19363;DHT22;9817;50.80926400;5.16316200;2023-09-30T09:11:48;18.50;99.90
19363;DHT22;9817;50.80926400;5.16316200;2023-09-30T09:14:14;18.80;99.90
19363;DHT22;9817;50.80926400;5.16316200;2023-09-30T09:16:54;18.80;99.90
19363;DHT22;9817;50.80926400;5.16316200;2023-09-30T09:19:20;18.90;99.90
19363;DHT22;9817;50.80926400;5.16316200;2023-09-30T09:21:55;19.10;99.90
19363;DHT22;9817;50.80926400;5.16316200;2023-09-30T09:27:07;19.00;99.90
19363;DHT22;9817;50.80926400;5.16316200;2023-09-30T09:29:35;19.10;99.90
19363;DHT22;9817;50.80926400;5.16316200;2023-09-30T09:34:34;19.50;99.90
19363;DHT22;9817;50.80926400;5.16316200;2023-09-30T09:37:12;19.60;99.90
19363;DHT22;9817;50.80926400;5.16316200;2023-09-30T09:39:37;19.80;99.90
19363;DHT22;9817;50.80926400;5.16316200;2023-09-30T09:42:03;19.80;99.90
19363;DHT22;9817;50.80926400;5.16316200;2023-09-30T09:44:29;19.70;99.90
19363;DHT22;9817;50.80926400;5.16316200;2023-09-30T09:46:57;19.50;99.90
19363;DHT22;9817;50.80926400;5.16316200;2023-09-30T09:49:24;19.40;99.90
19363;DHT22;9817;50.80926400;5.16316200;2023-09-30T09:51:52;19.40;99.90
19363;DHT22;9817;50.80926400;5.16316200;2023-09-30T09:54:19;19.30;99.90
19363;DHT22;9817;50.80926400;5.16316200;2023-09-30T09:56:45;19.40;99.90
19363;DHT22;9817;50.80926400;5.16316200;2023-09-30T09:59:14;19.30;99.90
19363;DHT22;9817;50.80926400;5.16316200;2023-09-30T10:01:40;19.30;99.90
19363;DHT22;9817;50.80926400;5.16316200;2023-09-30T10:04:06;19.10;99.90
19363;DHT22;9817;50.80926400;5.16316200;2023-09-30T10:06:34;19.10;99.90
19363;DHT22;9817;50.80926400;5.16316200;2023-09-30T10:09:09;19.30;99.90
19363;DHT22;9817;50.80926400;5.16316200;2023-09-30T10:11:37;19.50;99.90
19363;DHT22;9817;50.80926400;5.16316200;2023-09-30T10:14:03;19.70;99.90
19363;DHT22;9817;50.80926400;5.16316200;2023-09-30T10:19:21;19.90;99.90
19363;DHT22;9817;50.80926400;5.16316200;2023-09-30T10:24:48;19.80;99.90
19363;DHT22;9817;50.80926400;5.16316200;2023-09-30T10:35:16;20.20;99.90
19363;DHT22;9817;50.80926400;5.16316200;2023-09-30T10:37:43;20.20;99.90
19363;DHT22;9817;50.80926400;5.16316200;2023-09-30T10:40:10;20.00;99.90
19363;DHT22;9817;50.80926400;5.16316200;2023-09-30T10:42:49;19.80;99.90
19363;DHT22;9817;50.80926400;5.16316200;2023-09-30T10:53:25;20.40;99.90
19363;DHT22;9817;50.80926400;5.16316200;2023-09-30T10:55:57;20.40;99.90
19363;DHT22;9817;50.80926400;5.16316200;2023-09-30T10:58:46;20.40;99.90
19363;DHT22;9817;50.80926400;5.16316200;2023-09-30T11:01:15;20.40;99.90
19363;DHT22;9817;50.80926400;5.16316200;2023-09-30T11:03:41;20.50;99.90
19363;DHT22;9817;50.80926400;5.16316200;2023-09-30T11:06:10;20.40;99.90
19363;DHT22;9817;50.80926400;5.16316200;2023-09-30T11:08:41;20.40;99.90
19363;DHT22;9817;50.80926400;5.16316200;2023-09-30T11:11:10;20.80;99.90
19363;DHT22;9817;50.80926400;5.16316200;2023-09-30T11:13:36;20.80;99.90
19363;DHT22;9817;50.80926400;5.16316200;2023-09-30T11:16:03;21.10;99.90
19363;DHT22;9817;50.80926400;5.16316200;2023-09-30T11:18:32;21.10;99.90
19363;DHT22;9817;50.80926400;5.16316200;2023-09-30T11:21:11;21.20;99.90
19363;DHT22;9817;50.80926400;5.16316200;2023-09-30T11:23:40;21.40;99.90
19363;DHT22;9817;50.80926400;5.16316200;2023-09-30T11:26:06;21.50;99.90
19363;DHT22;9817;50.80926400;5.16316200;2023-09-30T11:28:39;21.50;99.90
19363;DHT22;9817;50.80926400;5.16316200;2023-09-30T11:31:11;21.60;99.90
19363;DHT22;9817;50.80926400;5.16316200;2023-09-30T11:33:52;21.50;99.90
19363;DHT22;9817;50.80926400;5.16316200;2023-09-30T11:36:19;21.40;99.90
19363;DHT22;9817;50.80926400;5.16316200;2023-09-30T11:38:46;21.50;99.90
19363;DHT22;9817;50.80926400;5.16316200;2023-09-30T11:41:13;21.70;99.90
19363;DHT22;9817;50.80926400;5.16316200;2023-09-30T11:44:02;21.90;99.90
19363;DHT22;9817;50.80926400;5.16316200;2023-09-30T11:46:46;21.70;99.90
19363;DHT22;9817;50.80926400;5.16316200;2023-09-30T11:49:27;21.80;99.90
19363;DHT22;9817;50.80926400;5.16316200;2023-09-30T11:51:54;21.80;99.90
19363;DHT22;9817;50.80926400;5.16316200;2023-09-30T11:54:20;22.00;99.90
19363;DHT22;9817;50.80926400;5.16316200;2023-09-30T11:56:47;22.20;99.90
19363;DHT22;9817;50.80926400;5.16316200;2023-09-30T11:59:13;22.30;99.90
19363;DHT22;9817;50.80926400;5.16316200;2023-09-30T12:01:39;22.20;99.90
19363;DHT22;9817;50.80926400;5.16316200;2023-09-30T12:04:05;22.30;99.90
19363;DHT22;9817;50.80926400;5.16316200;2023-09-30T12:06:32;21.90;99.90
19363;DHT22;9817;50.80926400;5.16316200;2023-09-30T12:08:59;21.70;99.90
19363;DHT22;9817;50.80926400;5.16316200;2023-09-30T12:11:25;21.60;99.90
19363;DHT22;9817;50.80926400;5.16316200;2023-09-30T12:13:51;21.70;99.90
19363;DHT22;9817;50.80926400;5.16316200;2023-09-30T12:16:17;21.60;99.90
19363;DHT22;9817;50.80926400;5.16316200;2023-09-30T12:18:43;21.30;99.90
19363;DHT22;9817;50.80926400;5.16316200;2023-09-30T12:21:10;21.50;99.90
19363;DHT22;9817;50.80926400;5.16316200;2023-09-30T12:23:37;21.40;99.90
19363;DHT22;9817;50.80926400;5.16316200;2023-09-30T12:26:03;21.20;99.90
19363;DHT22;9817;50.80926400;5.16316200;2023-09-30T12:28:32;21.20;99.90
19363;DHT22;9817;50.80926400;5.16316200;2023-09-30T12:30:59;21.00;99.90
19363;DHT22;9817;50.80926400;5.16316200;2023-09-30T12:33:28;21.10;99.90
19363;DHT22;9817;50.80926400;5.16316200;2023-09-30T12:35:55;21.20;99.90
19363;DHT22;9817;50.80926400;5.16316200;2023-09-30T12:38:22;21.20;99.90
19363;DHT22;9817;50.80926400;5.16316200;2023-09-30T12:40:48;21.30;99.90
19363;DHT22;9817;50.80926400;5.16316200;2023-09-30T12:43:14;21.30;99.90
19363;DHT22;9817;50.80926400;5.16316200;2023-09-30T12:45:39;21.30;99.90
19363;DHT22;9817;50.80926400;5.16316200;2023-09-30T12:48:05;21.30;99.90
19363;DHT22;9817;50.80926400;5.16316200;2023-09-30T12:50:31;21.50;99.90
19363;DHT22;9817;50.80926400;5.16316200;2023-09-30T12:52:56;21.60;99.90
19363;DHT22;9817;50.80926400;5.16316200;2023-09-30T12:55:25;21.60;99.90
19363;DHT22;9817;50.80926400;5.16316200;2023-09-30T12:57:52;21.50;99.90
19363;DHT22;9817;50.80926400;5.16316200;2023-09-30T13:00:18;21.70;99.90
19363;DHT22;9817;50.80926400;5.16316200;2023-09-30T13:02:45;21.90;99.90
19363;DHT22;9817;50.80926400;5.16316200;2023-09-30T13:05:11;21.50;99.90
19363;DHT22;9817;50.80926400;5.16316200;2023-09-30T13:07:37;21.10;99.90
19363;DHT22;9817;50.80926400;5.16316200;2023-09-30T13:10:03;21.20;99.90
19363;DHT22;9817;50.80926400;5.16316200;2023-09-30T13:12:31;21.20;99.90
19363;DHT22;9817;50.80926400;5.16316200;2023-09-30T13:14:59;21.50;99.90
19363;DHT22;9817;50.80926400;5.16316200;2023-09-30T13:17:24;21.70;99.90
19363;DHT22;9817;50.80926400;5.16316200;2023-09-30T13:19:51;21.80;99.90
19363;DHT22;9817;50.80926400;5.16316200;2023-09-30T13:22:17;21.90;99.90
19363;DHT22;9817;50.80926400;5.16316200;2023-09-30T13:24:43;21.90;99.90
19363;DHT22;9817;50.80926400;5.16316200;2023-09-30T13:27:09;21.80;99.90
19363;DHT22;9817;50.80926400;5.16316200;2023-09-30T13:29:35;21.90;99.90
19363;DHT22;9817;50.80926400;5.16316200;2023-09-30T13:32:01;22.00;99.90
19363;DHT22;9817;50.80926400;5.16316200;2023-09-30T13:34:27;22.20;99.90
19363;DHT22;9817;50.80926400;5.16316200;2023-09-30T13:36:54;22.20;99.90
19363;DHT22;9817;50.80926400;5.16316200;2023-09-30T13:39:20;22.20;99.90
19363;DHT22;9817;50.80926400;5.16316200;2023-09-30T13:41:46;22.30;99.90
19363;DHT22;9817;50.80926400;5.16316200;2023-09-30T13:44:13;22.50;99.90
19363;DHT22;9817;50.80926400;5.16316200;2023-09-30T13:46:39;22.60;99.90
19363;DHT22;9817;50.80926400;5.16316200;2023-09-30T13:49:04;22.60;99.90
19363;DHT22;9817;50.80926400;5.16316200;2023-09-30T13:51:30;22.60;99.90
19363;DHT22;9817;50.80926400;5.16316200;2023-09-30T13:53:55;22.50;99.90
19363;DHT22;9817;50.80926400;5.16316200;2023-09-30T13:56:21;22.60;99.90
19363;DHT22;9817;50.80926400;5.16316200;2023-09-30T13:58:47;22.70;99.90
19363;DHT22;9817;50.80926400;5.16316200;2023-09-30T14:01:14;22.50;99.90